sensor_id;sensor_type;location;lat;lon;timestamp;pressure;altitude;pressure_sealevel;temperature;humidity
79123;BME280;68526;44.600;26.032;2024-01-25T00:00:14;100532.41;;;-1.67;86.29
79123;BME280;68526;44.600;26.032;2024-01-25T00:00:30;100535.09;;;-1.67;86.12
79123;BME280;68526;44.600;26.032;2024-01-25T00:00:46;100527.03;;;-1.67;86.12
79123;BME280;68526;44.600;26.032;2024-01-25T00:01:02;100531.38;;;-1.66;86.14
79123;BME280;68526;44.600;26.032;2024-01-25T00:01:18;100526.00;;;-1.66;86.24
79123;BME280;68526;44.600;26.032;2024-01-25T00:01:35;100533.56;;;-1.63;86.24
79123;BME280;68526;44.600;26.032;2024-01-25T00:01:51;100539.75;;;-1.62;86.29
79123;BME280;68526;44.600;26.032;2024-01-25T00:02:06;100528.44;;;-1.64;86.28
79123;BME280;68526;44.600;26.032;2024-01-25T00:02:22;100526.81;;;-1.65;86.25
79123;BME280;68526;44.600;26.032;2024-01-25T00:02:38;100538.38;;;-1.65;86.14
79123;BME280;68526;44.600;26.032;2024-01-25T00:02:54;100535.19;;;-1.62;86.52
79123;BME280;68526;44.600;26.032;2024-01-25T00:03:10;100536.84;;;-1.61;86.42
79123;BME280;68526;44.600;26.032;2024-01-25T00:03:26;100540.56;;;-1.62;86.10
79123;BME280;68526;44.600;26.032;2024-01-25T00:03:43;100537.69;;;-1.60;86.41
79123;BME280;68526;44.600;26.032;2024-01-25T00:03:59;100530.19;;;-1.58;86.44
79123;BME280;68526;44.600;26.032;2024-01-25T00:04:15;100533.69;;;-1.57;86.13
79123;BME280;68526;44.600;26.032;2024-01-25T00:04:30;100535.81;;;-1.59;85.92
79123;BME280;68526;44.600;26.032;2024-01-25T00:04:46;100531.00;;;-1.57;86.11
79123;BME280;68526;44.600;26.032;2024-01-25T00:05:03;100534.50;;;-1.57;86.20
79123;BME280;68526;44.600;26.032;2024-01-25T00:05:19;100537.19;;;-1.57;86.05
79123;BME280;68526;44.600;26.032;2024-01-25T00:05:35;100530.44;;;-1.59;86.22
79123;BME280;68526;44.600;26.032;2024-01-25T00:05:53;100536.94;;;-1.55;86.34
79123;BME280;68526;44.600;26.032;2024-01-25T00:06:09;100535.88;;;-1.54;86.14
79123;BME280;68526;44.600;26.032;2024-01-25T00:06:25;100538.72;;;-1.61;86.54
79123;BME280;68526;44.600;26.032;2024-01-25T00:06:41;100533.13;;;-1.59;86.43
79123;BME280;68526;44.600;26.032;2024-01-25T00:06:57;100539.31;;;-1.59;86.24
79123;BME280;68526;44.600;26.032;2024-01-25T00:07:13;100538.25;;;-1.58;86.33
79123;BME280;68526;44.600;26.032;2024-01-25T00:07:28;100542.00;;;-1.59;86.29
79123;BME280;68526;44.600;26.032;2024-01-25T00:07:45;100531.38;;;-1.54;86.56
79123;BME280;68526;44.600;26.032;2024-01-25T00:08:01;100536.13;;;-1.56;86.18
79123;BME280;68526;44.600;26.032;2024-01-25T00:08:18;100541.75;;;-1.57;86.34
79123;BME280;68526;44.600;26.032;2024-01-25T00:08:34;100546.31;;;-1.58;86.09
79123;BME280;68526;44.600;26.032;2024-01-25T00:08:50;100545.81;;;-1.55;86.41
79123;BME280;68526;44.600;26.032;2024-01-25T00:09:06;100548.28;;;-1.53;86.10
79123;BME280;68526;44.600;26.032;2024-01-25T00:09:22;100544.19;;;-1.56;85.92
79123;BME280;68526;44.600;26.032;2024-01-25T00:09:38;100542.56;;;-1.57;86.08
79123;BME280;68526;44.600;26.032;2024-01-25T00:09:54;100542.09;;;-1.54;86.12
79123;BME280;68526;44.600;26.032;2024-01-25T00:10:10;100532.19;;;-1.53;86.14
79123;BME280;68526;44.600;26.032;2024-01-25T00:10:27;100516.63;;;-1.63;85.78
79123;BME280;68526;44.600;26.032;2024-01-25T00:10:43;100536.50;;;-1.52;85.69
79123;BME280;68526;44.600;26.032;2024-01-25T00:10:59;100551.94;;;-1.59;85.99
79123;BME280;68526;44.600;26.032;2024-01-25T00:11:15;100550.88;;;-1.58;86.08
79123;BME280;68526;44.600;26.032;2024-01-25T00:11:31;100542.56;;;-1.57;86.11
79123;BME280;68526;44.600;26.032;2024-01-25T00:11:47;100553.88;;;-1.55;86.07
79123;BME280;68526;44.600;26.032;2024-01-25T00:12:05;100533.00;;;-1.53;85.95
79123;BME280;68526;44.600;26.032;2024-01-25T00:12:21;100538.38;;;-1.53;85.71
79123;BME280;68526;44.600;26.032;2024-01-25T00:12:37;100535.69;;;-1.53;85.90
79123;BME280;68526;44.600;26.032;2024-01-25T00:12:53;100535.88;;;-1.54;85.76
79123;BME280;68526;44.600;26.032;2024-01-25T00:13:09;100546.44;;;-1.53;85.76
79123;BME280;68526;44.600;26.032;2024-01-25T00:13:25;100528.31;;;-1.57;85.65
79123;BME280;68526;44.600;26.032;2024-01-25T00:13:41;100533.34;;;-1.61;85.57
79123;BME280;68526;44.600;26.032;2024-01-25T00:13:57;100532.88;;;-1.58;85.70
79123;BME280;68526;44.600;26.032;2024-01-25T00:14:13;100539.88;;;-1.57;85.50
79123;BME280;68526;44.600;26.032;2024-01-25T00:14:30;100532.06;;;-1.58;85.62
79123;BME280;68526;44.600;26.032;2024-01-25T00:14:46;100539.53;;;-1.61;85.82
79123;BME280;68526;44.600;26.032;2024-01-25T00:15:03;100543.63;;;-1.58;85.47
79123;BME280;68526;44.600;26.032;2024-01-25T00:15:19;100535.81;;;-1.59;85.74
79123;BME280;68526;44.600;26.032;2024-01-25T00:15:34;100533.69;;;-1.57;85.67
79123;BME280;68526;44.600;26.032;2024-01-25T00:15:51;100536.13;;;-1.56;85.57
79123;BME280;68526;44.600;26.032;2024-01-25T00:16:07;100528.88;;;-1.55;85.55
79123;BME280;68526;44.600;26.032;2024-01-25T00:16:23;100528.06;;;-1.56;85.77
79123;BME280;68526;44.600;26.032;2024-01-25T00:16:41;100534.63;;;-1.52;85.51
79123;BME280;68526;44.600;26.032;2024-01-25T00:16:57;100532.19;;;-1.53;85.25
79123;BME280;68526;44.600;26.032;2024-01-25T00:17:13;100534.06;;;-1.54;85.62
79123;BME280;68526;44.600;26.032;2024-01-25T00:17:29;100527.25;;;-1.56;85.35
79123;BME280;68526;44.600;26.032;2024-01-25T00:17:45;100535.88;;;-1.54;85.31
79123;BME280;68526;44.600;26.032;2024-01-25T00:18:00;100539.19;;;-1.52;85.28
79123;BME280;68526;44.600;26.032;2024-01-25T00:18:16;100534.38;;;-1.50;85.00
79123;BME280;68526;44.600;26.032;2024-01-25T00:18:33;100534.88;;;-1.53;85.26
79123;BME280;68526;44.600;26.032;2024-01-25T00:18:49;100536.25;;;-1.51;85.06
79123;BME280;68526;44.600;26.032;2024-01-25T00:19:06;100532.75;;;-1.51;85.27
79123;BME280;68526;44.600;26.032;2024-01-25T00:19:22;100537.31;;;-1.52;84.77
79123;BME280;68526;44.600;26.032;2024-01-25T00:19:37;100529.81;;;-1.50;84.83
79123;BME280;68526;44.600;26.032;2024-01-25T00:19:53;100517.69;;;-1.52;84.99
79123;BME280;68526;44.600;26.032;2024-01-25T00:20:10;100536.00;;;-1.49;84.86
79123;BME280;68526;44.600;26.032;2024-01-25T00:20:26;100529.25;;;-1.52;84.87
79123;BME280;68526;44.600;26.032;2024-01-25T00:20:43;100519.31;;;-1.51;84.73
79123;BME280;68526;44.600;26.032;2024-01-25T00:21:01;100527.94;;;-1.49;84.61
79123;BME280;68526;44.600;26.032;2024-01-25T00:21:17;100525.16;;;-1.54;84.66
79123;BME280;68526;44.600;26.032;2024-01-25T00:21:32;100524.94;;;-1.53;84.68
79123;BME280;68526;44.600;26.032;2024-01-25T00:21:48;100508.00;;;-1.53;84.58
79123;BME280;68526;44.600;26.032;2024-01-25T00:22:04;100522.00;;;-1.51;84.42
79123;BME280;68526;44.600;26.032;2024-01-25T00:22:20;100511.25;;;-1.51;84.36
79123;BME280;68526;44.600;26.032;2024-01-25T00:22:36;100511.72;;;-1.54;84.97
79123;BME280;68526;44.600;26.032;2024-01-25T00:22:52;100515.00;;;-1.52;84.52
79123;BME280;68526;44.600;26.032;2024-01-25T00:23:09;100521.19;;;-1.52;84.81
79123;BME280;68526;44.600;26.032;2024-01-25T00:23:26;100516.38;;;-1.50;84.80
79123;BME280;68526;44.600;26.032;2024-01-25T00:23:42;100514.75;;;-1.51;84.81
79123;BME280;68526;44.600;26.032;2024-01-25T00:23:58;100518.81;;;-1.48;84.83
79123;BME280;68526;44.600;26.032;2024-01-25T00:24:14;100517.19;;;-1.49;84.61
79123;BME280;68526;44.600;26.032;2024-01-25T00:24:30;100518.75;;;-1.53;84.40
79123;BME280;68526;44.600;26.032;2024-01-25T00:24:47;100515.56;;;-1.50;84.44
79123;BME280;68526;44.600;26.032;2024-01-25T00:25:03;100516.63;;;-1.51;84.35
79123;BME280;68526;44.600;26.032;2024-01-25T00:25:19;100521.19;;;-1.52;84.47
79123;BME280;68526;44.600;26.032;2024-01-25T00:25:35;100515.81;;;-1.52;84.32
79123;BME280;68526;44.600;26.032;2024-01-25T00:25:51;100524.13;;;-1.53;84.62
79123;BME280;68526;44.600;26.032;2024-01-25T00:26:07;100514.19;;;-1.53;84.63
79123;BME280;68526;44.600;26.032;2024-01-25T00:26:23;100528.19;;;-1.51;84.23
79123;BME280;68526;44.600;26.032;2024-01-25T00:26:39;100527.13;;;-1.50;84.31
79123;BME280;68526;44.600;26.032;2024-01-25T00:26:56;100520.63;;;-1.54;84.36
79123;BME280;68526;44.600;26.032;2024-01-25T00:27:12;100520.38;;;-1.52;84.58
79123;BME280;68526;44.600;26.032;2024-01-25T00:27:27;100519.06;;;-1.50;84.26
79123;BME280;68526;44.600;26.032;2024-01-25T00:27:43;100518.25;;;-1.50;84.47
79123;BME280;68526;44.600;26.032;2024-01-25T00:28:00;100516.63;;;-1.51;84.38
79123;BME280;68526;44.600;26.032;2024-01-25T00:28:16;100522.56;;;-1.49;84.63
79123;BME280;68526;44.600;26.032;2024-01-25T00:28:33;100521.50;;;-1.48;84.41
79123;BME280;68526;44.600;26.032;2024-01-25T00:28:49;100515.31;;;-1.49;84.16
79123;BME280;68526;44.600;26.032;2024-01-25T00:29:05;100520.47;;;-1.47;84.24
79123;BME280;68526;44.600;26.032;2024-01-25T00:29:21;100513.44;;;-1.48;84.17
79123;BME280;68526;44.600;26.032;2024-01-25T00:29:37;100510.19;;;-1.50;84.29
79123;BME280;68526;44.600;26.032;2024-01-25T00:29:53;100519.06;;;-1.50;84.08
79123;BME280;68526;44.600;26.032;2024-01-25T00:30:10;100523.63;;;-1.50;84.25
79123;BME280;68526;44.600;26.032;2024-01-25T00:30:26;100507.50;;;-1.50;84.14
79123;BME280;68526;44.600;26.032;2024-01-25T00:30:43;100522.13;;;-1.46;84.34
79123;BME280;68526;44.600;26.032;2024-01-25T00:30:59;100517.56;;;-1.46;83.76
79123;BME280;68526;44.600;26.032;2024-01-25T00:31:15;100516.75;;;-1.46;83.86
79123;BME280;68526;44.600;26.032;2024-01-25T00:31:31;100516.88;;;-1.53;84.12
79123;BME280;68526;44.600;26.032;2024-01-25T00:31:47;100518.63;;;-1.47;84.09
79123;BME280;68526;44.600;26.032;2024-01-25T00:32:03;100524.31;;;-1.43;84.11
79123;BME280;68526;44.600;26.032;2024-01-25T00:32:19;100526.19;;;-1.44;84.07
79123;BME280;68526;44.600;26.032;2024-01-25T00:32:35;100518.72;;;-1.42;84.05
79123;BME280;68526;44.600;26.032;2024-01-25T00:32:52;100514.63;;;-1.44;84.10
79123;BME280;68526;44.600;26.032;2024-01-25T00:33:08;100520.00;;;-1.44;83.81
79123;BME280;68526;44.600;26.032;2024-01-25T00:33:24;100509.25;;;-1.44;83.56
79123;BME280;68526;44.600;26.032;2024-01-25T00:33:40;100515.09;;;-1.47;83.93
79123;BME280;68526;44.600;26.032;2024-01-25T00:33:57;100521.28;;;-1.47;83.77
79123;BME280;68526;44.600;26.032;2024-01-25T00:34:13;100518.38;;;-1.45;83.51
79123;BME280;68526;44.600;26.032;2024-01-25T00:34:31;100509.25;;;-1.44;83.63
79123;BME280;68526;44.600;26.032;2024-01-25T00:34:47;100514.88;;;-1.46;83.61
79123;BME280;68526;44.600;26.032;2024-01-25T00:35:04;100514.06;;;-1.46;83.46
79123;BME280;68526;44.600;26.032;2024-01-25T00:35:21;100518.63;;;-1.47;83.50
79123;BME280;68526;44.600;26.032;2024-01-25T00:35:37;100520.25;;;-1.46;83.66
79123;BME280;68526;44.600;26.032;2024-01-25T00:35:54;100512.44;;;-1.47;83.79
79123;BME280;68526;44.600;26.032;2024-01-25T00:36:13;100511.38;;;-1.46;83.50
79123;BME280;68526;44.600;26.032;2024-01-25T00:36:30;100508.06;;;-1.48;83.43
79123;BME280;68526;44.600;26.032;2024-01-25T00:36:47;100512.75;;;-1.44;83.50
79123;BME280;68526;44.600;26.032;2024-01-25T00:37:03;100509.25;;;-1.44;83.49
79123;BME280;68526;44.600;26.032;2024-01-25T00:37:20;100496.88;;;-1.45;83.27
79123;BME280;68526;44.600;26.032;2024-01-25T00:37:36;100503.31;;;-1.46;83.62
79123;BME280;68526;44.600;26.032;2024-01-25T00:37:53;100504.69;;;-1.44;83.37
79123;BME280;68526;44.600;26.032;2024-01-25T00:38:11;100503.31;;;-1.46;83.30
79123;BME280;68526;44.600;26.032;2024-01-25T00:38:27;100508.06;;;-1.48;83.24
79123;BME280;68526;44.600;26.032;2024-01-25T00:38:44;100500.63;;;-1.46;83.63
79123;BME280;68526;44.600;26.032;2024-01-25T00:39:00;100501.69;;;-1.47;83.32
79123;BME280;68526;44.600;26.032;2024-01-25T00:39:16;100504.56;;;-1.49;83.36
79123;BME280;68526;44.600;26.032;2024-01-25T00:39:33;100497.94;;;-1.46;83.65
79123;BME280;68526;44.600;26.032;2024-01-25T00:39:49;100498.38;;;-1.49;83.50
79123;BME280;68526;44.600;26.032;2024-01-25T00:40:06;100494.31;;;-1.52;83.46
79123;BME280;68526;44.600;26.032;2024-01-25T00:40:24;100496.31;;;-1.47;83.68
79123;BME280;68526;44.600;26.032;2024-01-25T00:40:40;100496.50;;;-1.49;83.67
79123;BME280;68526;44.600;26.032;2024-01-25T00:40:57;100491.63;;;-1.52;83.41
79123;BME280;68526;44.600;26.032;2024-01-25T00:41:17;100491.75;;;-1.47;83.72
79123;BME280;68526;44.600;26.032;2024-01-25T00:41:34;100490.94;;;-1.47;83.64
79123;BME280;68526;44.600;26.032;2024-01-25T00:41:52;100490.69;;;-1.46;83.77
79123;BME280;68526;44.600;26.032;2024-01-25T00:42:12;100488.81;;;-1.45;83.48
79123;BME280;68526;44.600;26.032;2024-01-25T00:42:30;100494.63;;;-1.48;83.60
79123;BME280;68526;44.600;26.032;2024-01-25T00:42:48;100489.06;;;-1.47;83.49
79123;BME280;68526;44.600;26.032;2024-01-25T00:43:09;100493.38;;;-1.46;83.70
79123;BME280;68526;44.600;26.032;2024-01-25T00:43:26;100487.75;;;-1.44;83.48
79123;BME280;68526;44.600;26.032;2024-01-25T00:43:42;100479.72;;;-1.56;83.58
79123;BME280;68526;44.600;26.032;2024-01-25T00:43:58;100490.69;;;-1.46;83.71
79123;BME280;68526;44.600;26.032;2024-01-25T00:44:15;100494.63;;;-1.48;83.78
79123;BME280;68526;44.600;26.032;2024-01-25T00:44:31;100497.13;;;-1.47;83.40
79123;BME280;68526;44.600;26.032;2024-01-25T00:44:49;100494.06;;;-1.50;83.27
79123;BME280;68526;44.600;26.032;2024-01-25T00:45:06;100498.63;;;-1.51;83.65
79123;BME280;68526;44.600;26.032;2024-01-25T00:45:23;100498.06;;;-1.53;83.82
79123;BME280;68526;44.600;26.032;2024-01-25T00:45:39;100492.34;;;-1.56;83.85
79123;BME280;68526;44.600;26.032;2024-01-25T00:45:56;100495.59;;;-1.54;83.82
79123;BME280;68526;44.600;26.032;2024-01-25T00:46:12;100493.63;;;-1.59;83.67
79123;BME280;68526;44.600;26.032;2024-01-25T00:46:29;100492.34;;;-1.56;83.67
79123;BME280;68526;44.600;26.032;2024-01-25T00:46:46;100496.88;;;-1.57;83.89
79123;BME280;68526;44.600;26.032;2024-01-25T00:47:03;100473.31;;;-1.67;83.69
79123;BME280;68526;44.600;26.032;2024-01-25T00:47:19;100498.53;;;-1.56;83.92
79123;BME280;68526;44.600;26.032;2024-01-25T00:47:36;100490.47;;;-1.56;84.05
79123;BME280;68526;44.600;26.032;2024-01-25T00:47:53;100490.72;;;-1.57;83.74
79123;BME280;68526;44.600;26.032;2024-01-25T00:48:10;100496.31;;;-1.59;84.18
79123;BME280;68526;44.600;26.032;2024-01-25T00:48:28;100490.13;;;-1.59;83.88
79123;BME280;68526;44.600;26.032;2024-01-25T00:48:44;100496.06;;;-1.57;83.84
79123;BME280;68526;44.600;26.032;2024-01-25T00:49:00;100482.28;;;-1.61;84.28
79123;BME280;68526;44.600;26.032;2024-01-25T00:49:17;100485.56;;;-1.59;84.12
79123;BME280;68526;44.600;26.032;2024-01-25T00:49:35;100483.69;;;-1.58;84.21
79123;BME280;68526;44.600;26.032;2024-01-25T00:49:51;100485.09;;;-1.56;84.28
79123;BME280;68526;44.600;26.032;2024-01-25T00:50:08;100478.09;;;-1.57;84.20
79123;BME280;68526;44.600;26.032;2024-01-25T00:50:25;100488.03;;;-1.57;84.05
79123;BME280;68526;44.600;26.032;2024-01-25T00:50:42;100468.16;;;-1.56;84.18
79123;BME280;68526;44.600;26.032;2024-01-25T00:50:59;100483.47;;;-1.57;84.02
79123;BME280;68526;44.600;26.032;2024-01-25T00:51:20;100478.34;;;-1.58;84.48
79123;BME280;68526;44.600;26.032;2024-01-25T00:51:37;100481.00;;;-1.58;84.20
79123;BME280;68526;44.600;26.032;2024-01-25T00:51:57;100476.22;;;-1.56;84.15
79123;BME280;68526;44.600;26.032;2024-01-25T00:52:14;100477.50;;;-1.59;83.97
79123;BME280;68526;44.600;26.032;2024-01-25T00:52:32;100469.66;;;-1.61;83.95
79123;BME280;68526;44.600;26.032;2024-01-25T00:52:48;100469.47;;;-1.59;84.49
79123;BME280;68526;44.600;26.032;2024-01-25T00:53:05;100471.31;;;-1.59;84.20
79123;BME280;68526;44.600;26.032;2024-01-25T00:53:21;100472.13;;;-1.59;84.51
79123;BME280;68526;44.600;26.032;2024-01-25T00:53:38;100463.84;;;-1.57;84.32
79123;BME280;68526;44.600;26.032;2024-01-25T00:53:54;100464.66;;;-1.57;84.24
79123;BME280;68526;44.600;26.032;2024-01-25T00:54:12;100473.53;;;-1.56;84.10
79123;BME280;68526;44.600;26.032;2024-01-25T00:54:29;100472.13;;;-1.59;84.28
79123;BME280;68526;44.600;26.032;2024-01-25T00:54:46;100472.97;;;-1.58;84.55
79123;BME280;68526;44.600;26.032;2024-01-25T00:55:03;100459.53;;;-1.58;84.59
79123;BME280;68526;44.600;26.032;2024-01-25T00:55:19;100463.84;;;-1.57;84.17
79123;BME280;68526;44.600;26.032;2024-01-25T00:55:36;100463.47;;;-1.61;84.29
79123;BME280;68526;44.600;26.032;2024-01-25T00:55:52;100473.19;;;-1.60;84.50
79123;BME280;68526;44.600;26.032;2024-01-25T00:56:10;100466.97;;;-1.61;84.47
79123;BME280;68526;44.600;26.032;2024-01-25T00:56:28;100461.16;;;-1.57;84.39
79123;BME280;68526;44.600;26.032;2024-01-25T00:56:44;100461.16;;;-1.57;84.51
79123;BME280;68526;44.600;26.032;2024-01-25T00:57:00;100459.78;;;-1.60;84.52
79123;BME280;68526;44.600;26.032;2024-01-25T00:57:17;100461.41;;;-1.59;84.48
79123;BME280;68526;44.600;26.032;2024-01-25T00:57:33;100450.66;;;-1.59;84.30
79123;BME280;68526;44.600;26.032;2024-01-25T00:57:50;100458.09;;;-1.61;84.44
79123;BME280;68526;44.600;26.032;2024-01-25T00:58:08;100454.72;;;-1.56;84.04
79123;BME280;68526;44.600;26.032;2024-01-25T00:58:25;100457.16;;;-1.55;84.47
79123;BME280;68526;44.600;26.032;2024-01-25T00:58:41;100459.03;;;-1.55;84.39
79123;BME280;68526;44.600;26.032;2024-01-25T00:58:58;100462.78;;;-1.56;84.40
79123;BME280;68526;44.600;26.032;2024-01-25T00:59:14;100451.22;;;-1.57;84.61
79123;BME280;68526;44.600;26.032;2024-01-25T00:59:31;100454.47;;;-1.55;84.45
79123;BME280;68526;44.600;26.032;2024-01-25T00:59:47;100457.41;;;-1.56;84.42
79123;BME280;68526;44.600;26.032;2024-01-25T01:00:04;100456.34;;;-1.55;84.28
79123;BME280;68526;44.600;26.032;2024-01-25T01:00:24;100454.25;;;-1.53;84.35
79123;BME280;68526;44.600;26.032;2024-01-25T01:00:40;100449.69;;;-1.53;84.49
79123;BME280;68526;44.600;26.032;2024-01-25T01:00:57;100450.50;;;-1.52;84.29
79123;BME280;68526;44.600;26.032;2024-01-25T01:01:13;100447.00;;;-1.53;84.45
79123;BME280;68526;44.600;26.032;2024-01-25T01:01:30;100449.09;;;-1.55;84.45
79123;BME280;68526;44.600;26.032;2024-01-25T01:01:47;100437.22;;;-1.59;84.47
79123;BME280;68526;44.600;26.032;2024-01-25T01:02:04;100452.97;;;-1.51;84.39
79123;BME280;68526;44.600;26.032;2024-01-25T01:02:22;100448.63;;;-1.52;84.47
79123;BME280;68526;44.600;26.032;2024-01-25T01:02:40;100450.50;;;-1.52;84.18
79123;BME280;68526;44.600;26.032;2024-01-25T01:03:00;100441.84;;;-1.54;84.52
79123;BME280;68526;44.600;26.032;2024-01-25T01:03:19;100437.78;;;-1.57;84.54
79123;BME280;68526;44.600;26.032;2024-01-25T01:03:35;100446.19;;;-1.53;84.82
79123;BME280;68526;44.600;26.032;2024-01-25T01:03:51;100451.56;;;-1.53;84.43
79123;BME280;68526;44.600;26.032;2024-01-25T01:04:09;100447.00;;;-1.53;84.36
79123;BME280;68526;44.600;26.032;2024-01-25T01:04:26;100445.28;;;-1.59;84.58
79123;BME280;68526;44.600;26.032;2024-01-25T01:04:42;100452.59;;;-1.54;84.83
79123;BME280;68526;44.600;26.032;2024-01-25T01:04:59;100460.44;;;-1.53;84.76
79123;BME280;68526;44.600;26.032;2024-01-25T01:05:15;100457.50;;;-1.51;84.77
79123;BME280;68526;44.600;26.032;2024-01-25T01:05:32;100451.66;;;-1.48;84.57
79123;BME280;68526;44.600;26.032;2024-01-25T01:05:48;100455.63;;;-1.51;84.60
79123;BME280;68526;44.600;26.032;2024-01-25T01:06:06;100449.44;;;-1.51;84.64
79123;BME280;68526;44.600;26.032;2024-01-25T01:06:24;100450.03;;;-1.49;84.71
79123;BME280;68526;44.600;26.032;2024-01-25T01:06:41;100449.22;;;-1.50;84.39
79123;BME280;68526;44.600;26.032;2024-01-25T01:06:58;100452.72;;;-1.49;84.79
79123;BME280;68526;44.600;26.032;2024-01-25T01:07:14;100454.34;;;-1.48;84.61
79123;BME280;68526;44.600;26.032;2024-01-25T01:07:31;100447.59;;;-1.51;84.64
79123;BME280;68526;44.600;26.032;2024-01-25T01:07:47;100447.34;;;-1.49;84.61
79123;BME280;68526;44.600;26.032;2024-01-25T01:08:04;100449.81;;;-1.48;84.54
79123;BME280;68526;44.600;26.032;2024-01-25T01:08:21;100443.38;;;-1.47;84.51
79123;BME280;68526;44.600;26.032;2024-01-25T01:08:38;100450.38;;;-1.46;84.39
79123;BME280;68526;44.600;26.032;2024-01-25T01:08:55;100441.97;;;-1.49;84.16
79123;BME280;68526;44.600;26.032;2024-01-25T01:09:10;100438.81;;;-1.46;84.51
79123;BME280;68526;44.600;26.032;2024-01-25T01:09:26;100435.88;;;-1.45;84.35
79123;BME280;68526;44.600;26.032;2024-01-25T01:09:43;100436.13;;;-1.46;84.01
79123;BME280;68526;44.600;26.032;2024-01-25T01:09:59;100447.69;;;-1.46;84.19
79123;BME280;68526;44.600;26.032;2024-01-25T01:10:16;100440.44;;;-1.45;84.15
79123;BME280;68526;44.600;26.032;2024-01-25T01:10:32;100443.69;;;-1.43;84.10
79123;BME280;68526;44.600;26.032;2024-01-25T01:10:48;100444.19;;;-1.46;83.86
79123;BME280;68526;44.600;26.032;2024-01-25T01:11:04;100441.50;;;-1.46;84.00
79123;BME280;68526;44.600;26.032;2024-01-25T01:11:20;100446.63;;;-1.45;84.12
79123;BME280;68526;44.600;26.032;2024-01-25T01:11:36;100445.00;;;-1.46;84.11
79123;BME280;68526;44.600;26.032;2024-01-25T01:11:53;100445.81;;;-1.45;84.00
79123;BME280;68526;44.600;26.032;2024-01-25T01:12:09;100443.94;;;-1.45;84.12
79123;BME280;68526;44.600;26.032;2024-01-25T01:12:25;100448.84;;;-1.42;84.06
79123;BME280;68526;44.600;26.032;2024-01-25T01:12:41;100439.38;;;-1.44;83.74
79123;BME280;68526;44.600;26.032;2024-01-25T01:12:56;100443.22;;;-1.40;83.62
79123;BME280;68526;44.600;26.032;2024-01-25T01:13:12;100446.72;;;-1.40;83.86
79123;BME280;68526;44.600;26.032;2024-01-25T01:13:28;100440.53;;;-1.40;83.82
79123;BME280;68526;44.600;26.032;2024-01-25T01:13:45;100445.09;;;-1.41;83.63
79123;BME280;68526;44.600;26.032;2024-01-25T01:14:02;100445.91;;;-1.40;83.79
79123;BME280;68526;44.600;26.032;2024-01-25T01:14:18;100446.38;;;-1.43;83.76
79123;BME280;68526;44.600;26.032;2024-01-25T01:14:34;100439.38;;;-1.44;83.81
79123;BME280;68526;44.600;26.032;2024-01-25T01:14:50;100445.34;;;-1.42;84.03
79123;BME280;68526;44.600;26.032;2024-01-25T01:15:06;100445.56;;;-1.44;83.88
79123;BME280;68526;44.600;26.032;2024-01-25T01:15:22;100448.34;;;-1.39;84.09
79123;BME280;68526;44.600;26.032;2024-01-25T01:15:38;100448.34;;;-1.39;83.68
79123;BME280;68526;44.600;26.032;2024-01-25T01:15:55;100450.59;;;-1.36;83.66
79123;BME280;68526;44.600;26.032;2024-01-25T01:16:11;100447.91;;;-1.36;83.98
79123;BME280;68526;44.600;26.032;2024-01-25T01:16:27;100440.53;;;-1.40;83.52
79123;BME280;68526;44.600;26.032;2024-01-25T01:16:44;100442.97;;;-1.39;83.91
79123;BME280;68526;44.600;26.032;2024-01-25T01:17:00;100440.31;;;-1.39;83.88
79123;BME280;68526;44.600;26.032;2024-01-25T01:17:16;100444.63;;;-1.38;83.81
79123;BME280;68526;44.600;26.032;2024-01-25T01:17:33;100443.22;;;-1.40;83.94
79123;BME280;68526;44.600;26.032;2024-01-25T01:17:49;100449.19;;;-1.38;83.61
79123;BME280;68526;44.600;26.032;2024-01-25T01:18:06;100439.72;;;-1.41;83.65
79123;BME280;68526;44.600;26.032;2024-01-25T01:18:22;100443.09;;;-1.33;83.78
79123;BME280;68526;44.600;26.032;2024-01-25T01:18:38;100446.03;;;-1.35;83.41
79123;BME280;68526;44.600;26.032;2024-01-25T01:18:54;100437.84;;;-1.40;83.80
79123;BME280;68526;44.600;26.032;2024-01-25T01:19:10;100447.66;;;-1.34;83.82
79123;BME280;68526;44.600;26.032;2024-01-25T01:19:26;100445.78;;;-1.33;83.68
79123;BME280;68526;44.600;26.032;2024-01-25T01:19:41;100441.47;;;-1.35;83.65
79123;BME280;68526;44.600;26.032;2024-01-25T01:19:58;100450.00;;;-1.38;83.37
79123;BME280;68526;44.600;26.032;2024-01-25T01:20:15;100446.84;;;-1.35;83.47
79123;BME280;68526;44.600;26.032;2024-01-25T01:20:30;100443.91;;;-1.33;83.56
79123;BME280;68526;44.600;26.032;2024-01-25T01:20:47;100451.41;;;-1.35;83.12
79123;BME280;68526;44.600;26.032;2024-01-25T01:21:03;100451.41;;;-1.35;83.53
79123;BME280;68526;44.600;26.032;2024-01-25T01:21:19;100447.91;;;-1.36;83.39
79123;BME280;68526;44.600;26.032;2024-01-25T01:21:38;100442.75;;;-1.37;83.64
79123;BME280;68526;44.600;26.032;2024-01-25T01:21:59;100454.66;;;-1.33;83.46
79123;BME280;68526;44.600;26.032;2024-01-25T01:22:14;100462.25;;;-1.30;83.33
79123;BME280;68526;44.600;26.032;2024-01-25T01:22:30;100468.19;;;-1.28;83.13
79123;BME280;68526;44.600;26.032;2024-01-25T01:22:46;100459.88;;;-1.26;82.92
79123;BME280;68526;44.600;26.032;2024-01-25T01:23:02;100464.19;;;-1.25;82.95
79123;BME280;68526;44.600;26.032;2024-01-25T01:23:18;100464.19;;;-1.25;82.88
79123;BME280;68526;44.600;26.032;2024-01-25T01:23:34;100464.44;;;-1.27;83.13
79123;BME280;68526;44.600;26.032;2024-01-25T01:23:51;100473.31;;;-1.26;82.88
79123;BME280;68526;44.600;26.032;2024-01-25T01:24:07;100478.47;;;-1.25;82.69
79123;BME280;68526;44.600;26.032;2024-01-25T01:24:23;100485.50;;;-1.24;82.86
79123;BME280;68526;44.600;26.032;2024-01-25T01:24:39;100487.94;;;-1.22;82.85
79123;BME280;68526;44.600;26.032;2024-01-25T01:24:55;100489.22;;;-1.25;83.10
79123;BME280;68526;44.600;26.032;2024-01-25T01:25:10;100496.00;;;-1.22;83.13
79123;BME280;68526;44.600;26.032;2024-01-25T01:25:26;100496.25;;;-1.24;83.08